createdAt,value
2023-02-12T00:02:18.758Z,16.67
2023-02-12T00:07:20.447Z,19.05
2023-02-12T00:12:22.536Z,17.23
2023-02-12T00:17:24.158Z,18.90
2023-02-12T00:22:25.841Z,19.38
2023-02-12T00:27:27.459Z,17.90
2023-02-12T00:32:29.066Z,18.88
2023-02-12T00:37:30.699Z,15.93
2023-02-12T00:42:32.311Z,19.05
2023-02-12T00:47:33.969Z,17.27
2023-02-12T00:52:35.809Z,16.58
2023-02-12T00:57:37.556Z,25.73
2023-02-12T01:02:39.234Z,18.02
2023-02-12T01:07:42.317Z,16.25
2023-02-12T01:12:44.173Z,20.60
2023-02-12T01:17:45.997Z,18.67
2023-02-12T01:22:47.922Z,20.75
2023-02-12T01:27:49.716Z,16.15
2023-02-12T01:32:51.429Z,15.52
2023-02-12T01:37:53.174Z,16.13
2023-02-12T01:42:54.850Z,18.77
2023-02-12T01:47:57.132Z,17.63
2023-02-12T01:52:59.564Z,17.58
2023-02-12T01:58:01.218Z,17.42
2023-02-12T02:03:03.046Z,20.08
2023-02-12T02:08:05.170Z,16.70
2023-02-12T02:13:25.998Z,17.27
2023-02-12T02:18:43.453Z,20.02
2023-02-12T02:24:26.745Z,17.90
2023-02-12T02:29:43.367Z,21.80
2023-02-12T02:34:54.546Z,20.85
2023-02-12T02:40:00.850Z,15.85
2023-02-12T02:45:12.693Z,18.38
2023-02-12T02:50:17.337Z,22.48
2023-02-12T02:55:20.859Z,16.95
2023-02-12T03:00:26.496Z,17.00
2023-02-12T03:05:33.724Z,15.18
2023-02-12T03:10:39.887Z,17.25
2023-02-12T03:16:10.309Z,18.40
2023-02-12T03:21:16.343Z,17.90
2023-02-12T03:26:23.681Z,16.85
2023-02-12T03:31:36.495Z,16.63
2023-02-12T03:36:42.078Z,15.32
2023-02-12T03:41:50.716Z,16.30
2023-02-12T03:47:02.791Z,17.30
2023-02-12T03:52:04.772Z,16.40
2023-02-12T03:57:17.494Z,15.15
2023-02-12T04:02:19.679Z,16.50
2023-02-12T04:07:21.451Z,18.23
2023-02-12T04:12:29.026Z,18.08
2023-02-12T04:17:40.895Z,18.23
2023-02-12T04:23:23.168Z,17.58
2023-02-12T04:28:50.031Z,19.05
2023-02-12T04:34:00.728Z,18.80
2023-02-12T04:39:06.867Z,15.98
2023-02-12T04:44:37.377Z,14.95
2023-02-12T04:49:39.028Z,15.60
2023-02-12T04:54:41.768Z,18.33
2023-02-12T04:59:43.366Z,17.77
2023-02-12T05:04:45.039Z,14.38
2023-02-12T05:09:46.686Z,15.85
2023-02-12T05:14:48.350Z,19.65
2023-02-12T05:19:50.202Z,21.50
2023-02-12T05:24:51.928Z,13.02
2023-02-12T05:29:53.614Z,16.45
2023-02-12T05:34:55.272Z,19.60
2023-02-12T05:39:57.012Z,16.25
2023-02-12T05:44:58.675Z,17.67
2023-02-12T05:50:00.281Z,17.38
2023-02-12T05:55:02.132Z,16.98
2023-02-12T06:00:05.858Z,19.35
2023-02-12T06:05:13.792Z,36.60
2023-02-12T06:10:15.455Z,16.50
2023-02-12T06:15:17.107Z,18.35
2023-02-12T06:20:19.133Z,23.10
2023-02-12T06:25:20.935Z,14.75
2023-02-12T06:30:22.936Z,17.25
2023-02-12T06:35:24.653Z,14.25
2023-02-12T06:40:26.270Z,13.80
2023-02-12T06:45:28.040Z,16.10
2023-02-12T06:50:29.704Z,15.75
2023-02-12T06:55:31.325Z,13.90
2023-02-12T07:00:33.081Z,13.27
2023-02-12T07:05:37.903Z,14.35
2023-02-12T07:10:39.572Z,9.43
2023-02-12T07:15:41.236Z,14.77
2023-02-12T07:20:43.289Z,12.27
2023-02-12T07:25:55.095Z,13.32
2023-02-12T07:30:58.809Z,12.18
2023-02-12T07:36:01.370Z,15.38
2023-02-12T07:41:20.403Z,13.25
2023-02-12T07:46:26.358Z,12.43
2023-02-12T07:51:28.538Z,13.90
2023-02-12T07:56:32.977Z,9.63
2023-02-12T08:01:39.731Z,10.57
2023-02-12T08:06:43.577Z,15.07
2023-02-12T08:11:45.706Z,13.20
2023-02-12T08:16:48.360Z,13.05
2023-02-12T08:21:54.167Z,13.82
2023-02-12T08:26:56.692Z,12.25
2023-02-12T08:32:00.859Z,11.65
2023-02-12T08:37:04.841Z,12.98
2023-02-12T08:42:06.542Z,10.80
2023-02-12T08:47:10.128Z,11.20
2023-02-12T08:52:11.771Z,11.95
2023-02-12T08:57:13.395Z,13.00
2023-02-12T09:02:15.089Z,11.30
2023-02-12T09:07:16.697Z,9.88
2023-02-12T09:12:18.343Z,11.63
2023-02-12T09:17:19.956Z,13.75
2023-02-12T09:22:21.895Z,9.18
2023-02-12T09:27:23.493Z,9.75
2023-02-12T09:32:25.150Z,11.35
2023-02-12T09:37:26.757Z,11.10
2023-02-12T09:42:53.266Z,8.85
2023-02-12T09:48:03.978Z,13.55
2023-02-12T09:53:05.769Z,11.18
2023-02-12T09:58:15.388Z,8.73
2023-02-12T10:03:17.783Z,8.52
2023-02-12T10:08:50.914Z,9.40
2023-02-12T10:14:15.581Z,7.70
2023-02-12T10:19:49.121Z,7.40
2023-02-12T10:24:56.446Z,6.78
2023-02-12T10:29:59.744Z,7.53
2023-02-12T10:35:02.365Z,7.80
2023-02-12T10:40:30.011Z,5.82
2023-02-12T10:45:34.892Z,5.13
2023-02-12T10:50:48.680Z,5.30
2023-02-12T10:55:50.460Z,5.00
2023-02-12T11:00:59.574Z,4.00
2023-02-12T11:06:31.977Z,4.07
2023-02-12T11:11:38.268Z,3.80
2023-02-12T11:16:46.486Z,3.72
2023-02-12T11:21:48.500Z,4.13
2023-02-12T11:26:50.086Z,3.03
2023-02-12T11:32:08.500Z,3.80
2023-02-12T11:37:18.955Z,3.60
2023-02-12T11:42:23.354Z,2.30
2023-02-12T11:47:28.767Z,3.50
2023-02-12T11:52:33.206Z,3.33
2023-02-12T11:57:39.720Z,3.03
2023-02-12T12:02:56.309Z,3.63
2023-02-12T12:08:04.004Z,3.30
2023-02-12T12:13:13.363Z,2.80
2023-02-12T12:18:51.842Z,6.30
2023-02-12T12:23:59.534Z,3.60
2023-02-12T12:29:22.673Z,4.03
2023-02-12T12:34:26.093Z,3.55
2023-02-12T12:39:38.779Z,3.05
2023-02-12T12:44:49.430Z,3.88
2023-02-12T12:50:12.749Z,4.15
2023-02-12T12:55:37.586Z,3.03
2023-02-12T13:00:58.056Z,4.47
2023-02-12T13:06:09.072Z,3.40
2023-02-12T13:11:29.969Z,3.53
2023-02-12T13:16:43.277Z,3.60
2023-02-12T13:22:10.543Z,2.95
2023-02-12T13:27:22.550Z,4.03
2023-02-12T13:32:29.840Z,3.53
2023-02-12T13:37:38.391Z,4.00
2023-02-12T13:42:46.059Z,2.22
2023-02-12T13:48:20.265Z,2.92
2023-02-12T13:53:45.965Z,2.63
2023-02-12T13:58:50.816Z,3.35
2023-02-12T14:03:52.564Z,3.45
2023-02-12T14:09:08.695Z,4.60
2023-02-12T14:14:10.367Z,4.05
2023-02-12T14:19:42.659Z,4.25
2023-02-12T14:24:50.327Z,4.25
2023-02-12T14:30:07.215Z,3.60
2023-02-12T14:35:27.383Z,4.82
2023-02-12T14:40:35.120Z,3.10
2023-02-12T14:45:37.434Z,4.75
2023-02-12T14:50:43.272Z,2.78
2023-02-12T14:55:46.509Z,2.67
2023-02-12T15:00:49.495Z,4.70
2023-02-12T15:05:58.270Z,4.65
2023-02-12T15:11:24.899Z,3.53
2023-02-12T15:16:42.942Z,5.10
2023-02-12T15:21:46.261Z,5.05
2023-02-12T15:26:50.001Z,4.63
2023-02-12T15:32:04.756Z,4.75
2023-02-12T15:37:07.787Z,5.28
2023-02-12T15:42:31.787Z,5.50
2023-02-12T15:47:34.734Z,5.00
2023-02-12T15:52:38.568Z,5.85
2023-02-12T15:57:40.854Z,5.32
2023-02-12T16:02:43.083Z,8.48
2023-02-12T16:07:45.945Z,5.05
2023-02-12T16:12:48.345Z,6.47
2023-02-12T16:17:50.024Z,7.82
2023-02-12T16:22:52.627Z,6.65
2023-02-12T16:28:24.020Z,6.13
2023-02-12T16:33:45.476Z,7.15
2023-02-12T16:38:49.445Z,5.32
2023-02-12T16:44:16.824Z,5.38
2023-02-12T16:49:21.095Z,6.47
2023-02-12T16:54:28.863Z,4.93
2023-02-12T16:59:30.594Z,5.03
2023-02-12T17:04:32.293Z,4.85
2023-02-12T17:09:33.967Z,4.05
2023-02-12T17:14:35.584Z,5.53
2023-02-12T17:19:37.242Z,5.78
2023-02-12T17:24:38.882Z,6.10
2023-02-12T17:29:40.551Z,7.18
2023-02-12T17:34:48.438Z,8.07
2023-02-12T17:39:50.714Z,8.23
2023-02-12T17:44:52.529Z,8.10
2023-02-12T17:49:54.214Z,8.52
2023-02-12T17:54:55.977Z,8.50
2023-02-12T17:59:58.032Z,8.95
2023-02-12T18:04:59.646Z,8.60
2023-02-12T18:10:01.311Z,9.32
2023-02-12T18:15:06.883Z,9.75
2023-02-12T18:20:10.750Z,8.80
2023-02-12T18:25:12.417Z,11.10
2023-02-12T18:30:14.616Z,9.60
2023-02-12T18:35:16.364Z,14.48
2023-02-12T18:40:18.293Z,10.02
2023-02-12T18:45:21.651Z,9.27
2023-02-12T18:50:23.328Z,8.82
2023-02-12T18:55:24.995Z,9.45
2023-02-12T19:00:26.797Z,10.48
2023-02-12T19:05:28.525Z,10.02
2023-02-12T19:10:30.249Z,11.07
2023-02-12T19:15:31.979Z,10.23
2023-02-12T19:20:34.047Z,10.10
2023-02-12T19:25:43.103Z,9.30
2023-02-12T19:30:44.899Z,12.02
2023-02-12T19:35:49.741Z,10.07
2023-02-12T19:40:51.477Z,9.20
2023-02-12T19:45:53.139Z,8.02
2023-02-12T19:50:55.063Z,11.50
2023-02-12T19:56:01.218Z,9.18
2023-02-12T20:01:08.603Z,9.25
2023-02-12T20:06:14.080Z,10.77
2023-02-12T20:11:24.057Z,10.48
2023-02-12T20:16:31.165Z,10.02
2023-02-12T20:21:32.895Z,11.65
2023-02-12T20:26:35.331Z,9.15
2023-02-12T20:31:37.624Z,10.73
2023-02-12T20:36:41.538Z,11.77
2023-02-12T20:41:43.544Z,9.93
2023-02-12T20:46:46.590Z,9.48
2023-02-12T20:51:50.216Z,11.77
2023-02-12T20:56:51.933Z,12.27
2023-02-12T21:01:53.875Z,11.90
2023-02-12T21:06:55.528Z,9.52
2023-02-12T21:11:59.090Z,12.18
2023-02-12T21:17:00.732Z,14.07
2023-02-12T21:22:02.565Z,9.75
2023-02-12T21:27:04.650Z,15.05
2023-02-12T21:32:06.402Z,14.35
2023-02-12T21:37:08.150Z,14.25
2023-02-12T21:42:09.773Z,12.32
2023-02-12T21:47:11.427Z,10.73
2023-02-12T21:52:13.141Z,7.25
2023-02-12T21:57:19.695Z,8.00
2023-02-12T22:02:21.338Z,7.85
2023-02-12T22:07:23.003Z,12.52
2023-02-12T22:12:24.657Z,12.85
2023-02-12T22:17:26.350Z,15.13
2023-02-12T22:22:27.976Z,14.50
2023-02-12T22:27:33.644Z,12.63
2023-02-12T22:32:35.302Z,10.93
2023-02-12T22:37:40.012Z,9.70
2023-02-12T22:42:41.719Z,13.98
2023-02-12T22:47:43.360Z,12.30
2023-02-12T22:52:44.986Z,13.50
2023-02-12T22:57:46.598Z,11.65
2023-02-12T23:02:48.248Z,12.02
2023-02-12T23:07:49.943Z,15.35
2023-02-12T23:12:51.562Z,12.23
2023-02-12T23:17:53.172Z,13.43
2023-02-12T23:22:54.787Z,14.52
2023-02-12T23:27:56.457Z,11.55
2023-02-12T23:32:58.106Z,11.98
2023-02-12T23:37:59.725Z,12.55
2023-02-12T23:43:01.431Z,11.15
2023-02-12T23:48:03.102Z,10.93
2023-02-12T23:53:04.831Z,10.23
2023-02-12T23:58:07.499Z,13.88
